createdAt,value
2018-04-27T00:02:03.348Z,5.50
2018-04-27T00:04:30.142Z,5.40
2018-04-27T00:06:56.990Z,5.40
2018-04-27T00:09:23.606Z,5.40
2018-04-27T00:11:50.262Z,5.30
2018-04-27T00:14:16.978Z,5.30
2018-04-27T00:16:44.456Z,5.30
2018-04-27T00:19:11.126Z,5.30
2018-04-27T00:21:37.766Z,5.30
2018-04-27T00:24:04.451Z,5.20
2018-04-27T00:26:31.126Z,5.20
2018-04-27T00:28:57.799Z,5.10
2018-04-27T00:31:25.192Z,5.10
2018-04-27T00:33:51.902Z,5.10
2018-04-27T00:36:19.269Z,5.10
2018-04-27T00:38:46.640Z,5.10
2018-04-27T00:41:13.289Z,5.00
2018-04-27T00:43:40.158Z,5.00
2018-04-27T00:46:06.826Z,5.00
2018-04-27T00:48:33.503Z,5.00
2018-04-27T00:51:00.174Z,4.90
2018-04-27T00:53:26.807Z,4.90
2018-04-27T00:55:53.475Z,4.90
2018-04-27T00:58:20.845Z,4.90
2018-04-27T01:00:48.374Z,4.90
2018-04-27T01:03:15.013Z,4.90
2018-04-27T01:05:41.649Z,4.90
2018-04-27T01:08:08.325Z,4.90
2018-04-27T01:10:34.998Z,4.80
2018-04-27T01:13:02.435Z,4.80
2018-04-27T01:15:29.090Z,4.80
2018-04-27T01:17:55.854Z,4.70
2018-04-27T01:20:22.534Z,4.70
2018-04-27T01:22:49.954Z,4.60
2018-04-27T01:25:16.608Z,4.60
2018-04-27T01:27:43.279Z,4.50
2018-04-27T01:30:10.032Z,4.50
2018-04-27T01:32:37.187Z,4.50
2018-04-27T01:35:03.859Z,4.40
2018-04-27T01:37:30.557Z,4.40
2018-04-27T01:39:57.258Z,4.40
2018-04-27T01:42:24.010Z,4.40
2018-04-27T01:44:51.770Z,4.40
2018-04-27T01:47:18.484Z,4.40
2018-04-27T01:49:46.718Z,4.40
2018-04-27T01:52:13.386Z,4.40
2018-04-27T01:54:40.051Z,4.50
2018-04-27T01:57:07.628Z,4.30
2018-04-27T01:59:35.019Z,4.30
2018-04-27T02:02:01.669Z,4.30
2018-04-27T02:04:29.867Z,4.30
2018-04-27T02:06:56.539Z,4.30
2018-04-27T02:09:23.264Z,4.30
2018-04-27T02:11:49.926Z,4.30
2018-04-27T02:14:16.607Z,4.30
2018-04-27T02:16:44.133Z,4.40
2018-04-27T02:19:10.850Z,4.40
2018-04-27T02:21:37.518Z,4.40
2018-04-27T02:24:04.176Z,4.40
2018-04-27T02:26:30.868Z,4.50
2018-04-27T02:28:58.287Z,4.50
2018-04-27T02:31:24.967Z,4.50
2018-04-27T02:33:52.440Z,4.50
2018-04-27T02:36:19.177Z,4.50
2018-04-27T02:38:46.029Z,4.60
2018-04-27T02:41:12.904Z,4.60
2018-04-27T02:43:39.611Z,4.60
2018-04-27T02:46:06.300Z,4.60
2018-04-27T02:48:33.767Z,4.60
2018-04-27T02:51:00.537Z,4.60
2018-04-27T02:53:27.296Z,4.60
2018-04-27T02:55:53.954Z,4.50
2018-04-27T02:58:21.424Z,4.50
2018-04-27T03:00:48.120Z,4.50
2018-04-27T03:03:14.751Z,4.50
2018-04-27T03:05:41.695Z,4.50
2018-04-27T03:08:08.379Z,4.50
2018-04-27T03:10:35.173Z,4.40
2018-04-27T03:13:01.817Z,4.40
2018-04-27T03:15:28.530Z,4.40
2018-04-27T03:17:55.949Z,4.40
2018-04-27T03:20:22.723Z,4.40
2018-04-27T03:22:50.103Z,4.30
2018-04-27T03:25:16.830Z,4.30
2018-04-27T03:27:43.488Z,4.30
2018-04-27T03:30:10.166Z,4.20
2018-04-27T03:32:38.342Z,4.10
2018-04-27T03:35:05.025Z,4.10
2018-04-27T03:37:31.683Z,4.20
2018-04-27T03:39:58.349Z,4.10
2018-04-27T03:42:25.074Z,4.10
2018-04-27T03:44:51.732Z,4.10
2018-04-27T03:47:18.420Z,4.10
2018-04-27T03:49:45.164Z,4.10
2018-04-27T03:52:12.030Z,4.10
2018-04-27T03:54:38.707Z,4.10
2018-04-27T03:57:06.133Z,4.10
2018-04-27T03:59:45.030Z,4.10
2018-04-27T04:05:29.043Z,4.10
2018-04-27T04:07:55.722Z,4.10
2018-04-27T04:10:22.414Z,4.10
2018-04-27T04:12:49.190Z,4.10
2018-04-27T04:15:15.851Z,4.10
2018-04-27T04:17:42.703Z,4.10
2018-04-27T04:20:09.426Z,4.20
2018-04-27T04:22:36.170Z,4.30
2018-04-27T04:25:02.909Z,4.20
2018-04-27T04:27:29.557Z,4.30
2018-04-27T04:29:56.227Z,4.30
2018-04-27T04:32:22.994Z,4.40
2018-04-27T04:34:50.448Z,4.50
2018-04-27T04:37:17.936Z,4.60
2018-04-27T04:39:44.611Z,4.50
2018-04-27T04:42:11.284Z,4.60
2018-04-27T04:44:37.971Z,4.70
2018-04-27T04:47:04.916Z,4.80
2018-04-27T04:49:31.705Z,4.80
2018-04-27T04:51:59.269Z,5.00
2018-04-27T04:54:26.040Z,4.90
2018-04-27T04:56:52.687Z,5.10
2018-04-27T04:59:19.427Z,5.10
2018-04-27T05:01:46.113Z,5.20
2018-04-27T05:04:12.871Z,5.20
2018-04-27T05:06:39.537Z,5.30
2018-04-27T05:09:06.270Z,5.40
2018-04-27T05:11:32.924Z,5.40
2018-04-27T05:13:59.792Z,5.50
2018-04-27T05:16:26.595Z,5.50
2018-04-27T05:18:56.364Z,5.60
2018-04-27T05:21:24.170Z,5.70
2018-04-27T05:23:50.814Z,5.70
2018-04-27T05:26:17.508Z,5.70
2018-04-27T05:28:44.951Z,5.90
2018-04-27T05:31:22.802Z,5.90
2018-04-27T05:33:49.539Z,6.00
2018-04-27T05:36:16.355Z,6.30
2018-04-27T05:38:43.121Z,6.60
2018-04-27T05:41:11.477Z,7.00
2018-04-27T05:43:38.251Z,7.40
2018-04-27T05:46:05.013Z,7.80
2018-04-27T05:48:31.926Z,8.20
2018-04-27T05:50:59.719Z,8.60
2018-04-27T05:53:26.427Z,8.80
2018-04-27T05:55:53.178Z,9.10
2018-04-27T05:58:20.014Z,9.50
2018-04-27T06:00:46.676Z,9.90
2018-04-27T06:03:13.386Z,10.30
2018-04-27T06:05:40.112Z,10.50
2018-04-27T06:08:06.881Z,10.70
2018-04-27T06:10:33.574Z,11.00
2018-04-27T06:13:01.068Z,11.40
2018-04-27T06:15:27.801Z,11.30
2018-04-27T06:17:54.503Z,11.50
2018-04-27T06:20:21.242Z,11.70
2018-04-27T06:22:48.817Z,12.30
2018-04-27T06:25:16.207Z,12.50
2018-04-27T06:27:42.893Z,12.50
2018-04-27T06:30:10.403Z,12.70
2018-04-27T06:32:37.909Z,12.90
2018-04-27T06:35:04.587Z,12.90
2018-04-27T06:37:31.403Z,13.10
2018-04-27T06:39:58.080Z,13.40
2018-04-27T06:42:24.820Z,13.60
2018-04-27T06:44:51.860Z,13.70
2018-04-27T06:47:18.616Z,13.40
2018-04-27T06:49:45.337Z,13.40
2018-04-27T06:52:12.101Z,13.50
2018-04-27T06:54:38.779Z,13.70
2018-04-27T06:57:06.235Z,13.90
2018-04-27T06:59:33.716Z,14.20
2018-04-27T07:02:00.504Z,14.20
2018-04-27T07:04:27.306Z,14.50
2018-04-27T07:06:54.259Z,14.50
2018-04-27T07:09:21.997Z,14.60
2018-04-27T07:11:48.716Z,14.80
2018-04-27T07:14:16.231Z,15.00
2018-04-27T07:16:43.064Z,15.00
2018-04-27T07:19:09.719Z,15.20
2018-04-27T07:21:36.543Z,15.30
2018-04-27T07:24:03.357Z,15.30
2018-04-27T07:26:30.124Z,15.50
2018-04-27T07:28:56.803Z,15.50
2018-04-27T07:31:25.013Z,15.90
2018-04-27T07:33:51.737Z,15.90
2018-04-27T07:36:19.176Z,16.20
2018-04-27T07:38:45.916Z,16.20
2018-04-27T07:41:12.715Z,16.20
2018-04-27T07:43:39.432Z,16.30
2018-04-27T07:46:06.261Z,16.50
2018-04-27T07:48:33.107Z,16.60
2018-04-27T07:50:59.898Z,16.70
2018-04-27T07:53:26.639Z,16.90
2018-04-27T07:55:53.407Z,17.10
2018-04-27T07:58:20.991Z,17.50
2018-04-27T08:00:47.738Z,17.50
2018-04-27T08:03:14.706Z,17.70
2018-04-27T08:05:41.452Z,17.90
2018-04-27T08:08:08.185Z,18.10
2018-04-27T08:10:35.141Z,18.20
2018-04-27T08:13:03.508Z,18.50
2018-04-27T08:15:30.270Z,18.50
2018-04-27T08:17:57.089Z,18.60
2018-04-27T08:20:25.726Z,18.70
2018-04-27T08:22:52.415Z,18.90
2018-04-27T08:25:19.596Z,18.90
2018-04-27T08:27:47.143Z,18.90
2018-04-27T08:30:13.949Z,18.90
2018-04-27T08:32:40.805Z,19.00
2018-04-27T08:35:07.591Z,19.00
2018-04-27T08:37:34.348Z,19.20
2018-04-27T08:40:01.776Z,19.10
2018-04-27T08:42:28.474Z,19.10
2018-04-27T08:44:55.195Z,19.10
2018-04-27T08:47:22.405Z,19.30
2018-04-27T08:49:49.084Z,19.30
2018-04-27T08:52:15.817Z,19.40
2018-04-27T08:54:43.823Z,19.50
2018-04-27T08:57:10.689Z,19.40
2018-04-27T08:59:37.471Z,19.30
2018-04-27T09:02:04.347Z,19.30
2018-04-27T09:04:31.088Z,19.50
2018-04-27T09:06:58.149Z,19.50
2018-04-27T09:09:24.977Z,19.50
2018-04-27T09:11:51.686Z,19.60
2018-04-27T09:14:19.141Z,20.00
2018-04-27T09:16:46.564Z,20.00
2018-04-27T09:19:13.338Z,20.00
2018-04-27T09:21:40.790Z,19.80
2018-04-27T09:24:07.581Z,19.80
2018-04-27T09:26:34.285Z,19.80
2018-04-27T09:29:00.979Z,19.70
2018-04-27T09:31:27.698Z,19.70
2018-04-27T09:33:54.349Z,19.70
2018-04-27T09:36:21.045Z,19.50
2018-04-27T09:38:47.872Z,19.50
2018-04-27T09:41:15.499Z,19.50
2018-04-27T09:43:42.987Z,19.60
2018-04-27T09:46:09.744Z,19.60
2018-04-27T09:48:36.709Z,19.60
2018-04-27T09:51:03.704Z,19.50
2018-04-27T09:53:30.427Z,19.30
2018-04-27T09:55:57.117Z,19.40
2018-04-27T09:58:23.974Z,19.40
2018-04-27T10:00:50.695Z,19.20
2018-04-27T10:03:17.890Z,19.40
2018-04-27T10:05:44.603Z,19.40
2018-04-27T10:08:11.342Z,19.30
2018-04-27T10:10:38.186Z,19.30
2018-04-27T10:13:04.864Z,19.50
2018-04-27T10:15:31.612Z,19.70
2018-04-27T10:17:58.318Z,19.70
2018-04-27T10:20:25.063Z,19.70
2018-04-27T10:22:51.885Z,19.90
2018-04-27T10:25:18.634Z,20.00
2018-04-27T10:27:45.413Z,20.30
2018-04-27T10:30:12.064Z,20.30
2018-04-27T10:32:39.506Z,20.10
2018-04-27T10:35:06.208Z,20.10
2018-04-27T10:37:32.851Z,20.10
2018-04-27T10:39:59.565Z,20.20
2018-04-27T10:42:26.220Z,20.30
2018-04-27T10:44:53.157Z,20.30
2018-04-27T10:47:19.941Z,20.30
2018-04-27T10:49:47.473Z,20.50
2018-04-27T10:52:14.267Z,20.50
2018-04-27T10:54:41.041Z,20.50
2018-04-27T10:57:07.878Z,20.30
2018-04-27T10:59:34.639Z,20.40
2018-04-27T11:02:01.462Z,20.30
2018-04-27T11:04:28.211Z,20.20
2018-04-27T11:06:55.073Z,20.10
2018-04-27T11:09:21.931Z,20.00
2018-04-27T11:11:48.667Z,20.30
2018-04-27T11:14:15.438Z,20.50
2018-04-27T11:16:42.287Z,20.50
2018-04-27T11:19:09.035Z,20.50
2018-04-27T11:21:35.794Z,20.50
2018-04-27T11:24:02.640Z,20.40
2018-04-27T11:26:29.477Z,20.30
2018-04-27T11:28:56.178Z,20.30
2018-04-27T11:31:22.840Z,20.40
2018-04-27T11:33:49.519Z,20.30
2018-04-27T11:36:16.237Z,20.30
2018-04-27T11:38:42.973Z,20.30
2018-04-27T11:41:09.637Z,20.30
2018-04-27T11:43:36.311Z,20.20
2018-04-27T11:46:03.878Z,20.40
2018-04-27T11:48:31.423Z,20.50
2018-04-27T11:50:58.935Z,20.70
2018-04-27T11:53:25.757Z,20.70
2018-04-27T11:55:52.609Z,20.80
2018-04-27T11:58:19.433Z,20.60
2018-04-27T12:00:47.255Z,20.40
2018-04-27T12:03:14.877Z,20.60
2018-04-27T12:05:41.686Z,20.60
2018-04-27T12:08:08.425Z,20.70
2018-04-27T12:10:35.273Z,20.80
2018-04-27T12:13:01.999Z,20.80
2018-04-27T12:15:28.756Z,20.70
2018-04-27T12:17:55.502Z,20.60
2018-04-27T12:20:22.376Z,20.70
2018-04-27T12:22:49.104Z,20.70
2018-04-27T12:25:15.779Z,20.80
2018-04-27T12:27:42.476Z,20.80
2018-04-27T12:30:09.194Z,20.80
2018-04-27T12:32:36.684Z,20.80
2018-04-27T12:35:03.353Z,20.70
2018-04-27T12:37:30.105Z,20.60
2018-04-27T12:39:58.055Z,20.40
2018-04-27T12:42:24.781Z,20.40
2018-04-27T12:44:51.515Z,20.50
2018-04-27T12:47:18.339Z,20.50
2018-04-27T12:49:45.069Z,20.30
2018-04-27T12:52:11.904Z,20.30
2018-04-27T12:54:39.862Z,20.40
2018-04-27T12:57:07.324Z,20.30
2018-04-27T12:59:34.098Z,20.30
2018-04-27T13:02:00.835Z,20.40
2018-04-27T13:04:27.487Z,20.40
2018-04-27T13:06:54.226Z,20.40
2018-04-27T13:09:21.001Z,20.60
2018-04-27T13:11:48.500Z,20.70
2018-04-27T13:14:15.298Z,20.70
2018-04-27T13:16:42.064Z,20.60
2018-04-27T13:19:08.834Z,20.60
2018-04-27T13:21:36.259Z,20.00
2018-04-27T13:24:02.930Z,20.00
2018-04-27T13:26:29.732Z,19.70
2018-04-27T13:28:56.423Z,19.60
2018-04-27T13:31:23.141Z,19.80
2018-04-27T13:33:49.856Z,20.00
2018-04-27T13:36:16.585Z,20.10
2018-04-27T13:38:43.508Z,20.10
2018-04-27T13:41:10.260Z,20.10
2018-04-27T13:43:36.927Z,20.00
2018-04-27T13:46:04.403Z,20.20
2018-04-27T13:48:31.144Z,20.20
2018-04-27T13:50:58.044Z,20.30
2018-04-27T13:53:25.625Z,20.30
2018-04-27T13:55:52.830Z,20.30
2018-04-27T13:58:19.598Z,20.20
2018-04-27T14:00:47.072Z,19.80
2018-04-27T14:03:14.622Z,19.70
2018-04-27T14:05:42.183Z,19.50
2018-04-27T14:08:08.950Z,19.50
2018-04-27T14:10:35.697Z,19.40
2018-04-27T14:13:02.453Z,19.50
2018-04-27T14:15:29.586Z,19.60
2018-04-27T14:17:56.348Z,19.50
2018-04-27T14:20:23.100Z,19.40
2018-04-27T14:22:49.809Z,19.20
2018-04-27T14:25:16.467Z,19.00
2018-04-27T14:27:43.191Z,19.00
2018-04-27T14:30:09.928Z,19.00
2018-04-27T14:32:36.619Z,19.00
2018-04-27T14:35:03.400Z,18.80
2018-04-27T14:37:30.081Z,18.70
2018-04-27T14:39:56.849Z,18.60
2018-04-27T14:42:24.696Z,18.30
2018-04-27T14:44:51.357Z,18.30
2018-04-27T14:47:18.779Z,18.30
2018-04-27T14:49:47.000Z,18.40
2018-04-27T14:52:13.663Z,18.40
2018-04-27T14:54:40.875Z,18.50
2018-04-27T14:57:07.748Z,18.40
2018-04-27T14:59:36.553Z,18.40
2018-04-27T15:02:03.311Z,18.30
2018-04-27T15:04:30.816Z,18.30
2018-04-27T15:06:58.263Z,18.40
2018-04-27T15:09:25.676Z,18.50
2018-04-27T15:11:52.454Z,18.40
2018-04-27T15:14:19.181Z,18.60
2018-04-27T15:16:45.872Z,18.60
2018-04-27T15:19:12.601Z,18.60
2018-04-27T15:21:39.301Z,18.70
2018-04-27T15:24:06.035Z,18.50
2018-04-27T15:26:32.786Z,18.20
2018-04-27T15:28:59.488Z,18.20
2018-04-27T15:31:26.174Z,18.30
2018-04-27T15:33:53.761Z,18.40
2018-04-27T15:36:20.478Z,18.40
2018-04-27T15:38:48.006Z,18.30
2018-04-27T15:41:15.527Z,18.20
2018-04-27T15:43:42.247Z,18.30
2018-04-27T15:46:09.004Z,18.30
2018-04-27T15:48:37.412Z,18.30
2018-04-27T15:51:04.121Z,18.30
2018-04-27T15:53:31.061Z,18.30
2018-04-27T15:55:58.005Z,18.30
2018-04-27T15:58:24.676Z,18.30
2018-04-27T16:00:51.610Z,18.30
2018-04-27T16:03:18.343Z,18.20
2018-04-27T16:05:45.137Z,18.40
2018-04-27T16:08:11.884Z,18.40
2018-04-27T16:10:38.749Z,18.20
2018-04-27T16:13:14.717Z,18.20
2018-04-27T16:15:42.471Z,18.20
2018-04-27T16:18:09.227Z,18.20
2018-04-27T16:20:35.987Z,18.20
2018-04-27T16:23:03.507Z,18.00
2018-04-27T16:25:30.350Z,17.90
2018-04-27T16:27:57.361Z,18.00
2018-04-27T16:30:24.142Z,18.10
2018-04-27T16:32:50.981Z,18.20
2018-04-27T16:35:18.308Z,18.10
2018-04-27T16:37:45.055Z,18.10
2018-04-27T16:40:11.817Z,18.00
2018-04-27T16:42:38.627Z,18.10
2018-04-27T16:45:06.129Z,18.10
2018-04-27T16:47:32.815Z,18.10
2018-04-27T16:50:00.312Z,18.00
2018-04-27T16:52:27.257Z,18.00
2018-04-27T16:54:53.916Z,18.00
2018-04-27T16:57:20.693Z,17.90
2018-04-27T16:59:48.259Z,17.80
2018-04-27T17:02:15.758Z,17.50
2018-04-27T17:04:42.516Z,17.50
2018-04-27T17:07:09.403Z,17.30
2018-04-27T17:09:36.956Z,17.00
2018-04-27T17:12:03.662Z,17.00
2018-04-27T17:14:31.331Z,16.90
2018-04-27T17:16:58.108Z,16.80
2018-04-27T17:19:25.041Z,16.80
2018-04-27T17:21:51.788Z,16.70
2018-04-27T17:24:18.667Z,16.60
2018-04-27T17:26:45.709Z,16.50
2018-04-27T17:29:12.474Z,16.40
2018-04-27T17:31:39.226Z,16.40
2018-04-27T17:34:05.994Z,16.30
2018-04-27T17:36:33.440Z,16.20
2018-04-27T17:39:00.214Z,16.10
2018-04-27T17:41:26.949Z,16.00
2018-04-27T17:43:53.716Z,16.00
2018-04-27T17:46:20.455Z,16.00
2018-04-27T17:48:47.652Z,15.90
2018-04-27T17:51:15.462Z,15.80
2018-04-27T17:53:42.420Z,15.80
2018-04-27T17:56:09.648Z,15.80
2018-04-27T17:58:36.555Z,15.70
2018-04-27T18:01:04.015Z,15.50
2018-04-27T18:03:32.030Z,15.40
2018-04-27T18:05:58.752Z,15.40
2018-04-27T18:08:25.920Z,15.40
2018-04-27T18:10:53.820Z,15.30
2018-04-27T18:13:20.507Z,15.30
2018-04-27T18:15:47.368Z,15.20
2018-04-27T18:18:14.165Z,15.10
2018-04-27T18:20:41.106Z,15.00
2018-04-27T18:23:07.870Z,14.90
2018-04-27T18:25:34.737Z,14.80
2018-04-27T18:28:01.523Z,14.60
2018-04-27T18:30:30.266Z,14.30
2018-04-27T18:32:57.450Z,14.30
2018-04-27T18:35:24.463Z,14.20
2018-04-27T18:37:52.169Z,14.10
2018-04-27T18:40:19.171Z,13.90
2018-04-27T18:42:45.929Z,13.80
2018-04-27T18:45:13.160Z,13.70
2018-04-27T18:47:40.776Z,13.50
2018-04-27T18:50:07.546Z,13.40
2018-04-27T18:52:34.388Z,13.40
2018-04-27T18:55:01.394Z,13.30
2018-04-27T18:57:29.112Z,13.00
2018-04-27T18:59:57.185Z,13.00
2018-04-27T19:02:24.035Z,12.90
2018-04-27T19:04:51.278Z,12.80
2018-04-27T19:07:19.146Z,12.80
2018-04-27T19:09:46.071Z,12.70
2018-04-27T19:12:12.868Z,12.60
2018-04-27T19:14:40.471Z,12.50
2018-04-27T19:17:07.335Z,12.50
2018-04-27T19:19:34.202Z,12.40
2018-04-27T19:22:01.963Z,12.30
2018-04-27T19:24:28.735Z,12.20
2018-04-27T19:26:55.504Z,12.10
2018-04-27T19:29:22.376Z,12.00
2018-04-27T19:31:49.311Z,11.90
2018-04-27T19:34:16.123Z,11.80
2018-04-27T19:36:43.627Z,11.60
2018-04-27T19:39:10.453Z,11.60
2018-04-27T19:41:37.297Z,11.50
2018-04-27T19:44:04.136Z,11.40
2018-04-27T19:46:30.899Z,11.30
2018-04-27T19:48:57.642Z,11.20
2018-04-27T19:51:24.453Z,11.10
2018-04-27T19:53:51.813Z,11.00
2018-04-27T19:56:19.164Z,11.00
2018-04-27T19:58:46.882Z,10.90
2018-04-27T20:01:15.785Z,10.80
2018-04-27T20:03:42.867Z,10.70
2018-04-27T20:06:10.739Z,10.50
2018-04-27T20:08:37.556Z,10.50
2018-04-27T20:11:06.339Z,10.40
2018-04-27T20:13:33.922Z,10.30
2018-04-27T20:16:00.949Z,10.30
2018-04-27T20:18:29.319Z,10.30
2018-04-27T20:20:57.539Z,10.30
2018-04-27T20:23:25.718Z,10.30
2018-04-27T20:25:54.542Z,10.20
2018-04-27T20:28:22.147Z,10.20
2018-04-27T20:30:49.476Z,10.20
2018-04-27T20:33:25.094Z,10.20
2018-04-27T20:35:55.522Z,10.20
2018-04-27T20:38:30.831Z,10.30
2018-04-27T20:40:58.478Z,10.20
2018-04-27T20:43:26.083Z,10.30
2018-04-27T20:45:54.575Z,10.30
2018-04-27T20:48:24.124Z,10.30
2018-04-27T20:50:57.559Z,10.30
2018-04-27T20:53:25.386Z,10.20
2018-04-27T20:55:53.355Z,10.20
2018-04-27T20:58:20.176Z,10.30
2018-04-27T21:00:47.113Z,10.30
2018-04-27T21:03:13.937Z,10.30
2018-04-27T21:05:40.819Z,10.20
2018-04-27T21:08:07.588Z,10.20
2018-04-27T21:10:35.168Z,10.10
2018-04-27T21:13:02.081Z,10.10
2018-04-27T21:15:28.910Z,10.00
2018-04-27T21:17:55.698Z,9.90
2018-04-27T21:20:28.365Z,9.90
2018-04-27T21:22:56.775Z,9.60
2018-04-27T21:25:32.326Z,9.70
2018-04-27T21:27:59.116Z,9.60
2018-04-27T21:30:25.922Z,9.50
2018-04-27T21:33:01.687Z,9.40
2018-04-27T21:38:45.411Z,9.20
2018-04-27T21:41:27.908Z,9.20
2018-04-27T21:44:07.784Z,9.10
2018-04-27T21:46:34.496Z,9.00
2018-04-27T21:49:07.227Z,8.90
2018-04-27T21:51:33.947Z,8.80
2018-04-27T21:54:05.036Z,8.80
2018-04-27T21:56:32.625Z,8.70
2018-04-27T21:58:59.410Z,8.70
2018-04-27T22:01:26.217Z,8.70
2018-04-27T22:03:57.694Z,8.60
2018-04-27T22:06:24.643Z,8.60
2018-04-27T22:09:07.220Z,8.60
2018-04-27T22:11:44.877Z,8.50
2018-04-27T22:14:13.457Z,8.50
2018-04-27T22:16:41.942Z,8.40
2018-04-27T22:19:20.248Z,8.30
2018-04-27T22:21:47.038Z,8.30
2018-04-27T22:24:13.884Z,8.30
2018-04-27T22:26:45.063Z,8.20
2018-04-27T22:29:21.530Z,8.10
2018-04-27T22:31:48.329Z,8.10
2018-04-27T22:34:15.305Z,8.10
2018-04-27T22:36:45.001Z,8.10
2018-04-27T22:39:19.966Z,8.10
2018-04-27T22:41:56.526Z,8.10
2018-04-27T22:44:24.176Z,8.10
2018-04-27T22:46:55.053Z,8.00
2018-04-27T22:49:22.533Z,8.00
2018-04-27T22:51:49.283Z,8.00
2018-04-27T22:57:33.047Z,8.00
2018-04-27T23:00:08.916Z,8.00
2018-04-27T23:02:35.692Z,8.10
2018-04-27T23:05:04.354Z,8.10
2018-04-27T23:07:31.154Z,8.10
2018-04-27T23:09:57.962Z,8.10
2018-04-27T23:12:25.527Z,8.10
2018-04-27T23:14:53.160Z,8.10
2018-04-27T23:17:19.912Z,8.10
2018-04-27T23:19:48.861Z,8.10
2018-04-27T23:22:27.926Z,8.10
2018-04-27T23:28:02.154Z,8.10
2018-04-27T23:30:31.898Z,8.10
2018-04-27T23:32:59.658Z,8.10
2018-04-27T23:35:26.569Z,8.10
2018-04-27T23:37:53.338Z,8.10
2018-04-27T23:40:20.075Z,8.10
2018-04-27T23:42:47.785Z,8.10
2018-04-27T23:45:14.549Z,8.10
2018-04-27T23:47:41.318Z,8.10
2018-04-27T23:50:14.046Z,8.10
2018-04-27T23:52:40.826Z,8.10
2018-04-27T23:55:07.580Z,8.10
2018-04-27T23:57:34.567Z,8.10
